createdAt,value
2018-07-17T00:00:45.287Z,19.40
2018-07-17T00:03:13.510Z,19.20
2018-07-17T00:05:41.782Z,19.10
2018-07-17T00:08:10.367Z,19.10
2018-07-17T00:10:38.594Z,19.00
2018-07-17T00:13:06.832Z,19.00
2018-07-17T00:15:35.049Z,19.00
2018-07-17T00:18:03.303Z,19.00
2018-07-17T00:20:31.523Z,18.90
2018-07-17T00:22:59.826Z,18.90
2018-07-17T00:25:28.046Z,18.80
2018-07-17T00:27:56.293Z,18.80
2018-07-17T00:30:24.534Z,18.70
2018-07-17T00:32:52.787Z,18.60
2018-07-17T00:35:21.011Z,18.40
2018-07-17T00:37:49.298Z,18.40
2018-07-17T00:40:17.528Z,18.40
2018-07-17T00:42:45.813Z,18.30
2018-07-17T00:45:14.072Z,18.40
2018-07-17T00:47:42.324Z,18.40
2018-07-17T00:50:10.574Z,18.40
2018-07-17T00:52:38.788Z,18.40
2018-07-17T00:55:07.044Z,18.40
2018-07-17T00:57:35.340Z,18.40
2018-07-17T01:00:03.619Z,18.30
2018-07-17T01:02:37.272Z,18.40
2018-07-17T01:05:10.895Z,18.50
2018-07-17T01:10:17.892Z,18.50
2018-07-17T01:12:45.384Z,18.50
2018-07-17T01:15:25.751Z,18.50
2018-07-17T01:17:54.119Z,18.60
2018-07-17T01:20:22.360Z,18.60
2018-07-17T01:22:50.594Z,18.60
2018-07-17T01:25:18.849Z,18.50
2018-07-17T01:27:47.126Z,18.40
2018-07-17T01:30:15.402Z,18.40
2018-07-17T01:32:43.654Z,18.40
2018-07-17T01:35:11.959Z,18.40
2018-07-17T01:37:40.207Z,18.40
2018-07-17T01:40:08.463Z,18.40
2018-07-17T01:42:36.749Z,18.30
2018-07-17T01:45:05.038Z,18.30
2018-07-17T01:47:33.290Z,18.30
2018-07-17T01:50:01.573Z,18.20
2018-07-17T01:52:30.681Z,18.10
2018-07-17T01:54:59.006Z,18.10
2018-07-17T01:57:27.426Z,18.00
2018-07-17T01:59:55.744Z,17.90
2018-07-17T02:02:23.978Z,17.80
2018-07-17T02:04:52.355Z,17.80
2018-07-17T02:07:20.542Z,17.80
2018-07-17T02:09:48.823Z,17.80
2018-07-17T02:12:17.078Z,17.70
2018-07-17T02:14:45.329Z,17.70
2018-07-17T02:17:13.559Z,17.70
2018-07-17T02:19:41.823Z,17.60
2018-07-17T02:22:10.074Z,17.60
2018-07-17T02:24:38.334Z,17.50
2018-07-17T02:27:06.743Z,17.50
2018-07-17T02:29:34.985Z,17.40
2018-07-17T02:32:03.287Z,17.40
2018-07-17T02:34:31.578Z,17.40
2018-07-17T02:36:59.856Z,17.40
2018-07-17T02:39:28.103Z,17.40
2018-07-17T02:41:56.315Z,17.30
2018-07-17T02:44:24.595Z,17.30
2018-07-17T02:46:52.928Z,17.40
2018-07-17T02:49:21.133Z,17.40
2018-07-17T02:51:49.417Z,17.40
2018-07-17T02:54:18.700Z,17.50
2018-07-17T02:59:14.966Z,17.50
2018-07-17T03:01:43.248Z,17.50
2018-07-17T03:04:11.543Z,17.40
2018-07-17T03:06:39.790Z,17.20
2018-07-17T03:09:08.307Z,17.10
2018-07-17T03:11:36.637Z,16.90
2018-07-17T03:14:04.930Z,17.00
2018-07-17T03:16:33.222Z,17.00
2018-07-17T03:19:01.540Z,17.00
2018-07-17T03:21:29.762Z,17.00
2018-07-17T03:23:57.995Z,16.90
2018-07-17T03:26:26.217Z,16.90
2018-07-17T03:28:54.506Z,16.90
2018-07-17T03:31:22.758Z,16.90
2018-07-17T03:33:51.042Z,17.00
2018-07-17T03:36:19.353Z,17.00
2018-07-17T03:38:47.594Z,17.10
2018-07-17T03:41:15.862Z,17.10
2018-07-17T03:43:44.150Z,17.20
2018-07-17T03:46:12.421Z,17.20
2018-07-17T03:48:40.688Z,17.30
2018-07-17T03:51:08.975Z,17.30
2018-07-17T03:53:37.238Z,17.30
2018-07-17T03:56:05.517Z,17.20
2018-07-17T03:58:33.805Z,17.20
2018-07-17T04:01:02.086Z,17.10
2018-07-17T04:03:31.449Z,17.00
2018-07-17T04:05:59.754Z,17.00
2018-07-17T04:08:28.002Z,17.00
2018-07-17T04:10:57.087Z,16.90
2018-07-17T04:13:25.327Z,16.80
2018-07-17T04:15:54.295Z,16.80
2018-07-17T04:18:22.562Z,16.80
2018-07-17T04:20:50.810Z,16.80
2018-07-17T04:23:19.035Z,16.90
2018-07-17T04:25:47.289Z,16.90
2018-07-17T04:28:15.477Z,17.00
2018-07-17T04:30:43.791Z,17.10
2018-07-17T04:33:12.027Z,17.10
2018-07-17T04:35:40.442Z,17.10
2018-07-17T04:38:08.718Z,17.10
2018-07-17T04:40:36.952Z,17.20
2018-07-17T04:43:05.307Z,17.20
2018-07-17T04:45:33.605Z,17.20
2018-07-17T04:48:01.860Z,17.20
2018-07-17T04:50:30.110Z,17.30
2018-07-17T04:52:58.383Z,17.30
2018-07-17T04:55:26.666Z,17.30
2018-07-17T04:57:55.010Z,17.40
2018-07-17T05:00:23.249Z,17.40
2018-07-17T05:02:51.460Z,17.40
2018-07-17T05:05:19.756Z,17.40
2018-07-17T05:07:48.007Z,17.50
2018-07-17T05:10:16.249Z,17.60
2018-07-17T05:12:44.445Z,17.70
2018-07-17T05:15:13.473Z,17.80
2018-07-17T05:17:41.691Z,17.90
2018-07-17T05:20:09.997Z,18.10
2018-07-17T05:22:38.202Z,18.20
2018-07-17T05:25:07.702Z,18.40
2018-07-17T05:27:35.948Z,18.50
2018-07-17T05:30:05.228Z,18.70
2018-07-17T05:32:33.440Z,18.90
2018-07-17T05:35:01.744Z,19.20
2018-07-17T05:37:29.952Z,19.50
2018-07-17T05:39:58.252Z,19.80
2018-07-17T05:42:26.507Z,20.30
2018-07-17T05:44:54.818Z,20.60
2018-07-17T05:47:23.026Z,21.00
2018-07-17T05:49:51.233Z,21.30
2018-07-17T05:52:19.468Z,21.70
2018-07-17T05:54:47.687Z,22.10
2018-07-17T05:57:15.934Z,22.50
2018-07-17T05:59:44.206Z,22.90
2018-07-17T06:02:12.618Z,23.20
2018-07-17T06:04:40.842Z,23.60
2018-07-17T06:07:09.093Z,24.00
2018-07-17T06:09:37.323Z,24.20
2018-07-17T06:12:06.594Z,24.50
2018-07-17T06:14:34.874Z,24.70
2018-07-17T06:17:03.768Z,24.90
2018-07-17T06:19:32.118Z,25.30
2018-07-17T06:22:00.432Z,25.50
2018-07-17T06:24:28.659Z,25.80
2018-07-17T06:26:56.998Z,26.00
2018-07-17T06:29:25.280Z,26.00
2018-07-17T06:31:53.550Z,26.10
2018-07-17T06:34:21.811Z,26.40
2018-07-17T06:36:50.410Z,26.50
2018-07-17T06:39:18.674Z,26.70
2018-07-17T06:41:46.947Z,26.90
2018-07-17T06:44:15.228Z,26.90
2018-07-17T06:46:43.510Z,27.00
2018-07-17T06:49:11.786Z,27.10
2018-07-17T06:51:40.082Z,27.10
2018-07-17T06:54:08.363Z,27.20
2018-07-17T06:56:36.614Z,27.40
2018-07-17T06:59:04.878Z,27.60
2018-07-17T07:01:33.158Z,27.80
2018-07-17T07:06:29.412Z,28.00
2018-07-17T07:08:57.781Z,28.10
2018-07-17T07:11:25.996Z,28.10
2018-07-17T07:13:54.314Z,28.20
2018-07-17T07:16:22.518Z,28.50
2018-07-17T07:18:51.322Z,28.60
2018-07-17T07:21:19.557Z,28.90
2018-07-17T07:23:47.770Z,28.90
2018-07-17T07:26:16.006Z,29.00
2018-07-17T07:28:44.268Z,29.00
2018-07-17T07:31:12.518Z,29.30
2018-07-17T07:33:40.746Z,29.40
2018-07-17T07:36:09.005Z,29.30
2018-07-17T07:38:37.210Z,29.70
2018-07-17T07:41:05.503Z,30.00
2018-07-17T07:43:33.788Z,30.20
2018-07-17T07:46:02.038Z,30.10
2018-07-17T07:48:31.533Z,30.20
2018-07-17T07:50:59.907Z,30.40
2018-07-17T07:53:28.286Z,30.50
2018-07-17T07:55:56.595Z,30.40
2018-07-17T07:58:24.889Z,30.40
2018-07-17T08:00:53.216Z,30.40
2018-07-17T08:03:21.433Z,30.40
2018-07-17T08:05:49.677Z,30.00
2018-07-17T08:08:17.938Z,29.70
2018-07-17T08:10:46.251Z,29.70
2018-07-17T08:13:14.485Z,29.80
2018-07-17T08:18:11.330Z,30.30
2018-07-17T08:20:39.575Z,30.40
2018-07-17T08:23:07.834Z,30.40
2018-07-17T08:25:36.169Z,30.10
2018-07-17T08:28:04.440Z,29.60
2018-07-17T08:30:32.767Z,29.60
2018-07-17T08:33:01.148Z,29.60
2018-07-17T08:35:29.522Z,29.50
2018-07-17T08:37:57.765Z,29.50
2018-07-17T08:40:26.071Z,29.30
2018-07-17T08:42:54.360Z,29.30
2018-07-17T08:47:50.557Z,29.00
2018-07-17T08:52:46.848Z,29.30
2018-07-17T08:55:15.146Z,29.50
2018-07-17T08:57:43.386Z,29.50
2018-07-17T09:00:11.669Z,29.40
2018-07-17T09:02:39.970Z,29.50
2018-07-17T09:05:08.245Z,29.50
2018-07-17T09:07:36.507Z,29.30
2018-07-17T09:10:04.919Z,29.70
2018-07-17T09:12:33.174Z,30.30
2018-07-17T09:15:01.720Z,30.60
2018-07-17T09:17:30.002Z,30.60
2018-07-17T09:19:58.295Z,30.60
2018-07-17T09:22:26.777Z,30.70
2018-07-17T09:24:55.042Z,30.70
2018-07-17T09:27:23.277Z,30.90
2018-07-17T09:29:51.540Z,31.40
2018-07-17T09:32:19.792Z,31.70
2018-07-17T09:34:48.089Z,31.60
2018-07-17T09:37:16.411Z,31.50
2018-07-17T09:42:12.791Z,31.30
2018-07-17T09:44:41.154Z,31.20
2018-07-17T09:47:09.425Z,31.20
2018-07-17T09:49:37.746Z,31.10
2018-07-17T09:52:06.123Z,30.70
2018-07-17T09:54:34.405Z,30.40
2018-07-17T09:57:02.731Z,30.10
2018-07-17T09:59:31.229Z,30.40
2018-07-17T10:02:04.909Z,30.50
2018-07-17T10:04:33.197Z,30.60
2018-07-17T10:07:01.514Z,30.90
2018-07-17T10:09:29.838Z,31.30
2018-07-17T10:11:58.038Z,31.70
2018-07-17T10:14:26.306Z,32.10
2018-07-17T10:16:56.003Z,32.60
2018-07-17T10:19:24.228Z,32.60
2018-07-17T10:24:24.604Z,33.00
2018-07-17T10:26:52.838Z,32.70
2018-07-17T10:29:21.142Z,33.00
2018-07-17T10:31:49.354Z,33.10
2018-07-17T10:34:17.569Z,32.40
2018-07-17T10:36:45.802Z,31.30
2018-07-17T10:39:13.994Z,30.90
2018-07-17T10:41:42.196Z,30.80
2018-07-17T10:44:10.938Z,30.60
2018-07-17T10:46:39.665Z,30.30
2018-07-17T10:49:08.127Z,29.80
2018-07-17T10:51:36.398Z,29.50
2018-07-17T10:54:04.651Z,29.30
2018-07-17T10:56:32.909Z,29.20
2018-07-17T10:59:01.148Z,29.00
2018-07-17T11:01:29.389Z,28.90
2018-07-17T11:03:57.686Z,28.80
2018-07-17T11:06:26.566Z,28.70
2018-07-17T11:08:54.899Z,28.50
2018-07-17T11:11:23.157Z,28.40
2018-07-17T11:13:51.441Z,28.20
2018-07-17T11:16:19.697Z,27.70
2018-07-17T11:18:48.003Z,26.70
2018-07-17T11:21:16.351Z,24.30
2018-07-17T11:23:44.600Z,22.90
2018-07-17T11:26:12.939Z,21.80
2018-07-17T11:28:41.435Z,21.40
2018-07-17T11:31:10.044Z,21.20
2018-07-17T11:33:38.598Z,21.20
2018-07-17T11:36:06.896Z,21.40
2018-07-17T11:38:35.242Z,21.70
2018-07-17T11:41:03.450Z,21.90
2018-07-17T11:43:31.707Z,22.20
2018-07-17T11:46:00.079Z,22.30
2018-07-17T11:48:28.770Z,22.50
2018-07-17T11:50:57.423Z,22.60
2018-07-17T11:53:25.957Z,22.80
2018-07-17T11:55:54.287Z,22.90
2018-07-17T11:58:22.578Z,22.80
2018-07-17T12:00:50.843Z,22.80
2018-07-17T12:03:19.119Z,22.80
2018-07-17T12:05:47.522Z,22.80
2018-07-17T12:10:43.647Z,23.10
2018-07-17T12:13:11.901Z,23.20
2018-07-17T12:15:40.098Z,23.30
2018-07-17T12:18:08.287Z,23.40
2018-07-17T12:20:36.709Z,23.50
2018-07-17T12:23:04.924Z,23.60
2018-07-17T12:25:33.144Z,23.80
2018-07-17T12:28:02.444Z,23.80
2018-07-17T12:30:30.588Z,23.90
2018-07-17T12:32:58.823Z,24.00
2018-07-17T12:35:27.100Z,24.00
2018-07-17T12:37:55.314Z,24.20
2018-07-17T12:40:23.683Z,24.20
2018-07-17T12:42:51.966Z,24.30
2018-07-17T12:45:20.253Z,24.50
2018-07-17T12:47:48.518Z,24.60
2018-07-17T12:50:16.794Z,24.70
2018-07-17T12:52:46.242Z,24.80
2018-07-17T12:55:14.478Z,24.90
2018-07-17T12:57:43.026Z,24.90
2018-07-17T13:00:11.218Z,25.00
2018-07-17T13:02:39.471Z,25.20
2018-07-17T13:05:07.691Z,25.20
2018-07-17T13:07:36.082Z,25.30
2018-07-17T13:10:04.632Z,25.40
2018-07-17T13:12:32.975Z,25.40
2018-07-17T13:15:01.200Z,25.40
2018-07-17T13:17:29.531Z,25.50
2018-07-17T13:19:57.749Z,25.50
2018-07-17T13:22:26.010Z,25.60
2018-07-17T13:24:54.274Z,25.70
2018-07-17T13:27:22.478Z,25.80
2018-07-17T13:29:50.729Z,25.80
2018-07-17T13:32:18.998Z,25.90
2018-07-17T13:34:47.621Z,25.90
2018-07-17T13:37:15.879Z,26.10
2018-07-17T13:39:44.170Z,26.30
2018-07-17T13:42:12.434Z,26.40
2018-07-17T13:44:40.965Z,26.40
2018-07-17T13:47:09.222Z,26.50
2018-07-17T13:49:37.470Z,26.50
2018-07-17T13:52:05.811Z,26.60
2018-07-17T13:54:34.044Z,26.70
2018-07-17T13:57:02.288Z,26.70
2018-07-17T13:59:30.885Z,26.70
2018-07-17T14:01:59.124Z,26.70
2018-07-17T14:04:27.318Z,26.70
2018-07-17T14:06:55.668Z,26.70
2018-07-17T14:09:23.864Z,26.80
2018-07-17T14:11:52.102Z,26.80
2018-07-17T14:14:20.937Z,26.90
2018-07-17T14:16:49.310Z,27.00
2018-07-17T14:19:17.550Z,27.10
2018-07-17T14:21:45.754Z,27.10
2018-07-17T14:24:14.077Z,27.10
2018-07-17T14:26:42.298Z,27.10
2018-07-17T14:29:10.591Z,27.10
2018-07-17T14:31:38.900Z,27.10
2018-07-17T14:34:07.141Z,27.10
2018-07-17T14:36:35.433Z,27.10
2018-07-17T14:39:05.539Z,27.20
2018-07-17T14:41:33.915Z,27.30
2018-07-17T14:44:02.118Z,27.30
2018-07-17T14:46:30.381Z,27.30
2018-07-17T14:48:58.638Z,27.40
2018-07-17T14:51:26.877Z,27.40
2018-07-17T14:53:55.089Z,27.50
2018-07-17T14:56:23.464Z,27.60
2018-07-17T14:58:51.652Z,27.60
2018-07-17T15:01:19.878Z,27.70
2018-07-17T15:03:48.111Z,27.80
2018-07-17T15:06:16.371Z,27.80
2018-07-17T15:08:44.738Z,27.80
2018-07-17T15:11:12.965Z,27.80
2018-07-17T15:13:41.218Z,27.80
2018-07-17T15:16:09.440Z,27.80
2018-07-17T15:18:37.677Z,27.80
2018-07-17T15:21:06.046Z,27.80
2018-07-17T15:23:34.315Z,27.80
2018-07-17T15:26:02.557Z,27.80
2018-07-17T15:28:30.782Z,27.80
2018-07-17T15:30:59.047Z,27.90
2018-07-17T15:33:27.469Z,28.20
2018-07-17T15:35:55.712Z,28.30
2018-07-17T15:38:24.084Z,28.40
2018-07-17T15:40:52.304Z,28.30
2018-07-17T15:43:20.521Z,28.20
2018-07-17T15:45:48.800Z,28.10
2018-07-17T15:48:17.022Z,28.00
2018-07-17T15:50:45.386Z,28.00
2018-07-17T15:53:13.655Z,27.90
2018-07-17T15:55:41.954Z,27.90
2018-07-17T15:58:10.305Z,27.90
2018-07-17T16:00:38.612Z,27.70
2018-07-17T16:03:06.845Z,27.70
2018-07-17T16:05:35.178Z,27.60
2018-07-17T16:08:03.436Z,27.40
2018-07-17T16:10:31.706Z,27.30
2018-07-17T16:12:59.934Z,27.10
2018-07-17T16:15:28.162Z,27.10
2018-07-17T16:17:56.382Z,27.00
2018-07-17T16:20:24.616Z,27.00
2018-07-17T16:22:52.805Z,26.90
2018-07-17T16:25:21.083Z,26.60
2018-07-17T16:27:49.341Z,26.40
2018-07-17T16:30:17.613Z,25.90
2018-07-17T16:32:45.822Z,25.10
2018-07-17T16:35:14.094Z,24.20
2018-07-17T16:37:42.345Z,23.60
2018-07-17T16:40:10.535Z,23.20
2018-07-17T16:42:38.786Z,22.70
2018-07-17T16:45:07.074Z,22.20
2018-07-17T16:47:35.338Z,21.90
2018-07-17T16:50:04.055Z,21.70
2018-07-17T16:52:32.321Z,21.60
2018-07-17T16:55:00.732Z,21.50
2018-07-17T16:57:28.986Z,21.40
2018-07-17T16:59:57.271Z,21.30
2018-07-17T17:02:25.556Z,21.20
2018-07-17T17:04:54.058Z,21.30
2018-07-17T17:07:22.283Z,21.20
2018-07-17T17:09:50.854Z,21.20
2018-07-17T17:12:19.257Z,21.10
2018-07-17T17:14:48.017Z,21.00
2018-07-17T17:17:16.218Z,21.00
2018-07-17T17:19:44.549Z,21.10
2018-07-17T17:22:13.364Z,21.30
2018-07-17T17:24:41.671Z,21.40
2018-07-17T17:27:09.796Z,21.40
2018-07-17T17:29:38.594Z,21.40
2018-07-17T17:32:07.002Z,21.40
2018-07-17T17:34:35.348Z,21.40
2018-07-17T17:37:03.574Z,21.30
2018-07-17T17:39:31.906Z,21.20
2018-07-17T17:42:00.090Z,21.20
2018-07-17T17:44:28.296Z,21.30
2018-07-17T17:46:56.655Z,21.40
2018-07-17T17:49:24.922Z,21.40
2018-07-17T17:51:54.380Z,21.40
2018-07-17T17:54:22.614Z,21.40
2018-07-17T17:56:50.864Z,21.40
2018-07-17T17:59:19.086Z,21.60
2018-07-17T18:01:47.338Z,21.50
2018-07-17T18:04:15.526Z,21.60
2018-07-17T18:06:43.825Z,21.50
2018-07-17T18:09:12.237Z,21.60
2018-07-17T18:11:40.555Z,21.50
2018-07-17T18:14:08.847Z,21.40
2018-07-17T18:16:37.097Z,21.40
2018-07-17T18:19:05.301Z,21.40
2018-07-17T18:21:33.580Z,21.40
2018-07-17T18:24:01.854Z,21.30
2018-07-17T18:26:30.130Z,21.30
2018-07-17T18:28:58.458Z,21.20
2018-07-17T18:31:26.688Z,21.20
2018-07-17T18:33:54.926Z,21.20
2018-07-17T18:36:23.191Z,21.20
2018-07-17T18:38:51.430Z,21.30
2018-07-17T18:41:19.675Z,21.30
2018-07-17T18:43:47.903Z,21.40
2018-07-17T18:46:16.525Z,21.30
2018-07-17T18:48:48.003Z,21.30
2018-07-17T18:51:17.065Z,21.30
2018-07-17T18:53:45.730Z,21.20
2018-07-17T18:56:14.346Z,21.20
2018-07-17T18:58:43.483Z,21.30
2018-07-17T19:01:11.726Z,21.30
2018-07-17T19:03:39.996Z,21.20
2018-07-17T19:06:09.610Z,21.20
2018-07-17T19:08:38.169Z,21.30
2018-07-17T19:11:06.409Z,21.20
2018-07-17T19:13:34.746Z,21.20
2018-07-17T19:16:03.050Z,21.20
2018-07-17T19:18:31.409Z,21.10
2018-07-17T19:20:59.912Z,21.10
2018-07-17T19:23:28.306Z,21.10
2018-07-17T19:25:56.786Z,21.10
2018-07-17T19:28:25.399Z,21.10
2018-07-17T19:30:53.852Z,21.20
2018-07-17T19:33:22.788Z,21.10
2018-07-17T19:35:51.403Z,21.10
2018-07-17T19:38:21.560Z,21.00
2018-07-17T19:40:49.838Z,21.00
2018-07-17T19:43:18.464Z,21.00
2018-07-17T19:45:47.299Z,21.00
2018-07-17T19:48:15.585Z,21.10
2018-07-17T19:50:43.851Z,21.10
2018-07-17T19:53:12.088Z,21.10
2018-07-17T19:55:40.355Z,21.10
2018-07-17T19:58:08.971Z,21.10
2018-07-17T20:00:37.226Z,21.00
2018-07-17T20:03:05.629Z,21.00
2018-07-17T20:05:34.032Z,21.00
2018-07-17T20:08:02.388Z,21.00
2018-07-17T20:12:59.107Z,20.90
2018-07-17T20:15:27.338Z,20.80
2018-07-17T20:17:55.902Z,20.70
2018-07-17T20:20:24.186Z,20.50
2018-07-17T20:22:52.570Z,20.40
2018-07-17T20:25:20.994Z,20.30
2018-07-17T20:27:49.316Z,20.10
2018-07-17T20:30:17.602Z,20.00
2018-07-17T20:32:46.049Z,20.00
2018-07-17T20:35:14.414Z,19.80
2018-07-17T20:37:42.948Z,19.80
2018-07-17T20:40:11.286Z,19.80
2018-07-17T20:42:39.542Z,19.90
2018-07-17T20:45:07.819Z,19.90
2018-07-17T20:47:36.133Z,19.90
2018-07-17T20:50:05.126Z,19.90
2018-07-17T20:52:33.436Z,20.00
2018-07-17T20:55:01.680Z,20.00
2018-07-17T20:57:30.027Z,20.00
2018-07-17T20:59:58.336Z,20.00
2018-07-17T21:02:26.574Z,19.90
2018-07-17T21:04:55.042Z,20.00
2018-07-17T21:07:23.291Z,20.00
2018-07-17T21:09:51.549Z,20.10
2018-07-17T21:12:19.817Z,20.10
2018-07-17T21:14:48.061Z,20.10
2018-07-17T21:17:16.366Z,20.00
2018-07-17T21:19:50.938Z,20.00
2018-07-17T21:22:19.142Z,20.00
2018-07-17T21:24:47.441Z,19.90
2018-07-17T21:27:15.680Z,20.00
2018-07-17T21:29:43.928Z,20.00
2018-07-17T21:32:12.106Z,20.00
2018-07-17T21:34:40.369Z,20.00
2018-07-17T21:37:08.600Z,19.90
2018-07-17T21:39:36.822Z,19.90
2018-07-17T21:42:05.048Z,19.90
2018-07-17T21:44:33.267Z,19.80
2018-07-17T21:47:01.523Z,19.80
2018-07-17T21:49:29.805Z,19.70
2018-07-17T21:51:58.011Z,19.60
2018-07-17T21:54:26.284Z,19.50
2018-07-17T21:56:54.742Z,19.40
2018-07-17T21:59:22.917Z,19.40
2018-07-17T22:01:51.125Z,19.40
2018-07-17T22:04:19.373Z,19.40
2018-07-17T22:06:47.580Z,19.40
2018-07-17T22:09:15.870Z,19.40
2018-07-17T22:11:44.516Z,19.40
2018-07-17T22:14:12.756Z,19.40
2018-07-17T22:16:40.987Z,19.40
2018-07-17T22:19:09.262Z,19.40
2018-07-17T22:21:37.503Z,19.40
2018-07-17T22:24:05.818Z,19.40
2018-07-17T22:26:34.034Z,19.40
2018-07-17T22:29:02.242Z,19.40
2018-07-17T22:31:30.530Z,19.50
2018-07-17T22:33:58.790Z,19.50
2018-07-17T22:36:27.037Z,19.50
2018-07-17T22:38:55.270Z,19.50
2018-07-17T22:41:23.488Z,19.40
2018-07-17T22:43:51.918Z,19.30
2018-07-17T22:46:20.150Z,19.10
2018-07-17T22:48:48.371Z,19.00
2018-07-17T22:51:16.595Z,18.90
2018-07-17T22:53:44.834Z,18.70
2018-07-17T22:56:13.091Z,18.50
2018-07-17T22:58:41.350Z,18.50
2018-07-17T23:01:09.602Z,18.50
2018-07-17T23:03:37.881Z,18.40
2018-07-17T23:06:06.283Z,18.40
2018-07-17T23:08:34.536Z,18.30
2018-07-17T23:11:02.751Z,18.30
2018-07-17T23:13:31.038Z,18.30
2018-07-17T23:15:59.266Z,18.30
2018-07-17T23:18:27.476Z,18.30
2018-07-17T23:20:55.740Z,18.30
2018-07-17T23:23:24.029Z,18.30
2018-07-17T23:25:52.279Z,18.40
2018-07-17T23:28:20.529Z,18.40
2018-07-17T23:30:48.757Z,18.40
2018-07-17T23:33:16.946Z,18.40
2018-07-17T23:35:45.182Z,18.20
2018-07-17T23:38:13.420Z,18.10
2018-07-17T23:40:41.663Z,18.00
2018-07-17T23:43:09.856Z,18.00
2018-07-17T23:45:38.052Z,18.00
2018-07-17T23:48:06.298Z,18.10
2018-07-17T23:50:34.526Z,18.00
2018-07-17T23:53:02.750Z,18.20
2018-07-17T23:55:30.955Z,18.20
2018-07-17T23:57:59.173Z,18.20
